createdAt,value
2018-09-10T00:00:51.887Z,54.84
2018-09-10T00:03:20.075Z,54.86
2018-09-10T00:05:48.251Z,54.88
2018-09-10T00:08:16.457Z,54.93
2018-09-10T00:10:44.644Z,55.00
2018-09-10T00:13:12.820Z,55.11
2018-09-10T00:15:41.018Z,54.53
2018-09-10T00:18:09.191Z,55.15
2018-09-10T00:20:37.384Z,54.83
2018-09-10T00:23:05.563Z,54.53
2018-09-10T00:25:33.748Z,54.52
2018-09-10T00:28:01.936Z,54.55
2018-09-10T00:30:30.238Z,54.17
2018-09-10T00:32:58.412Z,54.35
2018-09-10T00:35:26.602Z,53.81
2018-09-10T00:37:54.783Z,54.12
2018-09-10T00:40:23.019Z,54.37
2018-09-10T00:42:51.204Z,54.35
2018-09-10T00:45:19.432Z,54.06
2018-09-10T00:47:47.632Z,53.38
2018-09-10T00:50:15.832Z,53.90
2018-09-10T00:52:44.003Z,53.41
2018-09-10T00:55:12.223Z,53.47
2018-09-10T00:57:40.404Z,53.76
2018-09-10T01:00:08.592Z,53.40
2018-09-10T01:02:36.787Z,53.59
2018-09-10T01:05:05.073Z,53.21
2018-09-10T01:07:33.259Z,53.55
2018-09-10T01:10:01.443Z,53.43
2018-09-10T01:12:29.656Z,53.04
2018-09-10T01:14:57.832Z,53.11
2018-09-10T01:17:26.026Z,53.50
2018-09-10T01:19:54.940Z,53.26
2018-09-10T01:22:23.406Z,54.03
2018-09-10T01:24:51.587Z,54.08
2018-09-10T01:27:19.784Z,53.80
2018-09-10T01:29:47.959Z,53.96
2018-09-10T01:32:16.156Z,54.20
2018-09-10T01:34:49.680Z,54.28
2018-09-10T01:37:17.857Z,55.01
2018-09-10T01:39:46.035Z,54.09
2018-09-10T01:42:14.227Z,53.99
2018-09-10T01:44:42.424Z,54.08
2018-09-10T01:47:10.603Z,53.79
2018-09-10T01:49:38.778Z,53.26
2018-09-10T01:52:06.954Z,53.36
2018-09-10T01:54:35.531Z,52.83
2018-09-10T01:57:03.718Z,53.33
2018-09-10T01:59:31.900Z,53.28
2018-09-10T02:02:00.084Z,53.11
2018-09-10T02:04:28.267Z,53.17
2018-09-10T02:06:56.435Z,53.41
2018-09-10T02:09:24.608Z,54.32
2018-09-10T02:11:52.863Z,53.63
2018-09-10T02:14:21.041Z,53.50
2018-09-10T02:16:49.224Z,53.93
2018-09-10T02:19:17.401Z,54.90
2018-09-10T02:21:45.597Z,55.99
2018-09-10T02:24:13.777Z,55.77
2018-09-10T02:26:41.954Z,55.75
2018-09-10T02:29:10.135Z,56.01
2018-09-10T02:31:38.298Z,56.03
2018-09-10T02:34:06.481Z,56.30
2018-09-10T02:36:34.679Z,56.25
2018-09-10T02:39:02.873Z,56.66
2018-09-10T02:41:31.072Z,56.68
2018-09-10T02:43:59.247Z,57.00
2018-09-10T02:46:27.424Z,57.46
2018-09-10T02:48:55.594Z,57.68
2018-09-10T02:51:23.807Z,57.70
2018-09-10T02:53:51.991Z,58.00
2018-09-10T02:56:20.188Z,58.47
2018-09-10T02:58:48.363Z,58.87
2018-09-10T03:01:16.563Z,59.05
2018-09-10T03:03:44.750Z,59.70
2018-09-10T03:06:12.932Z,59.77
2018-09-10T03:08:41.102Z,59.90
2018-09-10T03:11:09.318Z,60.34
2018-09-10T03:13:37.499Z,60.17
2018-09-10T03:16:05.686Z,60.23
2018-09-10T03:18:33.889Z,59.59
2018-09-10T03:21:02.134Z,59.51
2018-09-10T03:23:30.340Z,59.32
2018-09-10T03:25:58.511Z,60.05
2018-09-10T03:28:26.703Z,59.56
2018-09-10T03:30:54.888Z,59.96
2018-09-10T03:33:23.191Z,59.81
2018-09-10T03:35:51.459Z,59.82
2018-09-10T03:38:19.652Z,59.59
2018-09-10T03:40:47.910Z,59.12
2018-09-10T03:43:16.110Z,58.79
2018-09-10T03:45:44.315Z,59.05
2018-09-10T03:48:12.607Z,59.26
2018-09-10T03:50:40.822Z,59.34
2018-09-10T03:53:09.054Z,59.05
2018-09-10T03:55:37.336Z,59.45
2018-09-10T03:58:05.544Z,59.22
2018-09-10T04:00:33.829Z,59.40
2018-09-10T04:03:02.091Z,59.57
2018-09-10T04:05:30.335Z,60.04
2018-09-10T04:07:58.586Z,59.46
2018-09-10T04:10:26.774Z,58.76
2018-09-10T04:12:54.952Z,59.37
2018-09-10T04:15:23.214Z,59.53
2018-09-10T04:17:51.416Z,59.91
2018-09-10T04:20:19.698Z,59.89
2018-09-10T04:22:47.895Z,60.56
2018-09-10T04:25:16.121Z,60.45
2018-09-10T04:27:44.326Z,61.13
2018-09-10T04:30:15.543Z,61.54
2018-09-10T04:32:43.795Z,61.49
2018-09-10T04:35:12.603Z,61.31
2018-09-10T04:37:41.250Z,61.10
2018-09-10T04:40:09.504Z,60.98
2018-09-10T04:42:37.744Z,61.69
2018-09-10T04:45:06.179Z,61.72
2018-09-10T04:47:34.456Z,62.04
2018-09-10T04:50:03.135Z,61.82
2018-09-10T04:52:31.351Z,62.25
2018-09-10T04:54:59.645Z,62.15
2018-09-10T04:57:27.859Z,62.13
2018-09-10T04:59:56.159Z,62.81
2018-09-10T05:02:24.335Z,62.19
2018-09-10T05:04:52.572Z,61.83
2018-09-10T05:07:20.896Z,62.24
2018-09-10T05:09:49.196Z,61.98
2018-09-10T05:12:17.356Z,62.64
2018-09-10T05:14:45.583Z,62.57
2018-09-10T05:17:13.764Z,61.90
2018-09-10T05:19:42.013Z,62.29
2018-09-10T05:22:10.286Z,62.39
2018-09-10T05:24:38.435Z,62.42
2018-09-10T05:27:06.638Z,62.34
2018-09-10T05:29:34.836Z,61.81
2018-09-10T05:32:03.048Z,62.49
2018-09-10T05:34:31.259Z,62.20
2018-09-10T05:36:59.483Z,62.61
2018-09-10T05:39:27.703Z,62.63
2018-09-10T05:41:55.986Z,62.73
2018-09-10T05:44:24.196Z,62.28
2018-09-10T05:46:52.446Z,62.39
2018-09-10T05:49:20.686Z,62.35
2018-09-10T05:51:49.012Z,62.87
2018-09-10T05:54:17.237Z,62.60
2018-09-10T05:56:45.956Z,63.46
2018-09-10T05:59:14.228Z,62.64
2018-09-10T06:01:42.513Z,62.60
2018-09-10T06:04:10.736Z,62.11
2018-09-10T06:06:38.926Z,62.87
2018-09-10T06:09:07.580Z,62.61
2018-09-10T06:11:35.828Z,62.54
2018-09-10T06:14:04.112Z,62.94
2018-09-10T06:16:32.342Z,62.48
2018-09-10T06:19:00.772Z,62.42
2018-09-10T06:21:34.619Z,61.97
2018-09-10T06:24:02.824Z,62.10
2018-09-10T06:26:31.084Z,59.94
2018-09-10T06:28:59.320Z,59.52
2018-09-10T06:31:27.507Z,60.12
2018-09-10T06:33:56.590Z,59.91
2018-09-10T06:36:25.284Z,59.35
2018-09-10T06:38:53.608Z,59.15
2018-09-10T06:41:21.935Z,58.81
2018-09-10T06:43:50.204Z,58.78
2018-09-10T06:46:18.421Z,56.92
2018-09-10T06:48:46.711Z,57.39
2018-09-10T06:51:14.912Z,57.79
2018-09-10T06:53:43.123Z,58.08
2018-09-10T06:56:11.348Z,58.67
2018-09-10T06:58:39.561Z,57.88
2018-09-10T07:01:07.740Z,57.23
2018-09-10T07:03:35.958Z,57.26
2018-09-10T07:06:04.146Z,57.89
2018-09-10T07:08:32.409Z,57.00
2018-09-10T07:11:00.568Z,57.15
2018-09-10T07:13:28.794Z,57.12
2018-09-10T07:15:56.948Z,57.52
2018-09-10T07:18:25.200Z,58.12
2018-09-10T07:20:53.438Z,57.85
2018-09-10T07:23:21.627Z,57.56
2018-09-10T07:25:49.833Z,57.57
2018-09-10T07:28:18.023Z,57.00
2018-09-10T07:30:46.318Z,56.86
2018-09-10T07:33:14.572Z,56.58
2018-09-10T07:35:43.290Z,55.99
2018-09-10T07:38:11.503Z,55.77
2018-09-10T07:40:39.758Z,55.77
2018-09-10T07:43:07.958Z,55.60
2018-09-10T07:45:36.219Z,55.71
2018-09-10T07:48:04.630Z,55.38
2018-09-10T07:50:32.847Z,55.53
2018-09-10T07:53:01.034Z,56.08
2018-09-10T07:55:29.299Z,56.40
2018-09-10T07:57:57.527Z,55.42
2018-09-10T08:00:25.799Z,55.94
2018-09-10T08:02:54.029Z,56.62
2018-09-10T08:05:22.251Z,55.51
2018-09-10T08:07:50.576Z,55.09
2018-09-10T08:10:18.821Z,55.14
2018-09-10T08:12:47.265Z,55.48
2018-09-10T08:15:15.424Z,55.30
2018-09-10T08:17:43.698Z,54.68
2018-09-10T08:20:11.927Z,54.41
2018-09-10T08:22:40.169Z,54.21
2018-09-10T08:25:08.472Z,54.60
2018-09-10T08:27:36.690Z,54.93
2018-09-10T08:30:05.275Z,55.00
2018-09-10T08:32:33.528Z,55.19
2018-09-10T08:35:01.729Z,55.68
2018-09-10T08:37:29.928Z,55.01
2018-09-10T08:39:58.119Z,54.92
2018-09-10T08:42:26.529Z,53.46
2018-09-10T08:44:54.799Z,54.02
2018-09-10T08:47:22.999Z,53.64
2018-09-10T08:49:51.286Z,54.39
2018-09-10T08:52:19.560Z,54.52
2018-09-10T08:54:48.244Z,54.61
2018-09-10T08:57:16.048Z,54.47
2018-09-10T08:59:44.509Z,54.30
2018-09-10T09:02:12.749Z,54.06
2018-09-10T09:04:41.006Z,53.67
2018-09-10T09:07:09.220Z,54.58
2018-09-10T09:09:37.431Z,53.99
2018-09-10T09:12:05.630Z,53.40
2018-09-10T09:14:33.812Z,53.56
2018-09-10T09:17:01.992Z,53.17
2018-09-10T09:19:30.189Z,52.63
2018-09-10T09:21:58.476Z,51.85
2018-09-10T09:24:26.782Z,52.02
2018-09-10T09:26:54.993Z,52.39
2018-09-10T09:29:23.233Z,52.02
2018-09-10T09:31:51.529Z,50.93
2018-09-10T09:34:19.800Z,49.15
2018-09-10T09:36:53.426Z,49.33
2018-09-10T09:39:26.899Z,49.32
2018-09-10T09:42:00.304Z,48.65
2018-09-10T09:44:33.796Z,49.31
2018-09-10T09:47:02.015Z,48.50
2018-09-10T09:49:30.224Z,46.88
2018-09-10T09:51:58.450Z,47.43
2018-09-10T09:54:26.646Z,45.72
2018-09-10T09:56:54.884Z,45.78
2018-09-10T09:59:23.104Z,43.12
2018-09-10T10:01:52.704Z,41.88
2018-09-10T10:04:21.024Z,42.85
2018-09-10T10:06:49.155Z,43.24
2018-09-10T10:09:17.371Z,40.35
2018-09-10T10:11:45.782Z,40.42
2018-09-10T10:14:13.916Z,40.97
2018-09-10T10:16:42.170Z,40.11
2018-09-10T10:19:10.381Z,38.78
2018-09-10T10:21:38.613Z,40.37
2018-09-10T10:24:06.914Z,40.12
2018-09-10T10:26:35.136Z,40.70
2018-09-10T10:29:03.334Z,40.94
2018-09-10T10:31:31.585Z,41.13
2018-09-10T10:33:59.799Z,39.48
2018-09-10T10:36:28.004Z,39.65
2018-09-10T10:38:56.217Z,39.97
2018-09-10T10:41:24.446Z,39.30
2018-09-10T10:43:52.658Z,39.43
2018-09-10T10:46:20.868Z,39.20
2018-09-10T10:48:49.089Z,38.70
2018-09-10T10:51:17.310Z,39.40
2018-09-10T10:53:45.536Z,39.01
2018-09-10T10:56:13.716Z,39.73
2018-09-10T10:58:42.012Z,39.21
2018-09-10T11:01:10.256Z,39.68
2018-09-10T11:03:38.433Z,40.81
2018-09-10T11:06:06.704Z,41.33
2018-09-10T11:08:34.876Z,41.08
2018-09-10T11:11:03.052Z,40.43
2018-09-10T11:13:31.235Z,40.57
2018-09-10T11:15:59.415Z,42.05
2018-09-10T11:18:27.600Z,43.08
2018-09-10T11:20:55.790Z,43.38
2018-09-10T11:23:23.964Z,42.67
2018-09-10T11:25:52.148Z,43.54
2018-09-10T11:28:20.355Z,44.46
2018-09-10T11:30:48.530Z,43.46
2018-09-10T11:33:16.724Z,43.62
2018-09-10T11:35:45.016Z,44.53
2018-09-10T11:38:13.199Z,43.85
2018-09-10T11:40:41.383Z,42.36
2018-09-10T11:43:09.582Z,42.47
2018-09-10T11:45:37.795Z,42.25
2018-09-10T11:48:06.185Z,41.93
2018-09-10T11:50:34.797Z,41.16
2018-09-10T11:53:03.062Z,42.29
2018-09-10T11:55:31.778Z,41.55
2018-09-10T11:57:59.875Z,40.55
2018-09-10T12:00:28.060Z,40.40
2018-09-10T12:02:56.273Z,41.71
2018-09-10T12:05:24.448Z,41.91
2018-09-10T12:07:52.644Z,40.74
2018-09-10T12:10:20.816Z,40.90
2018-09-10T12:12:49.005Z,41.47
2018-09-10T12:15:18.427Z,41.04
2018-09-10T12:17:46.615Z,41.36
2018-09-10T12:20:14.814Z,41.45
2018-09-10T12:22:43.000Z,41.61
2018-09-10T12:25:11.187Z,41.23
2018-09-10T12:27:39.375Z,40.78
2018-09-10T12:30:07.630Z,40.37
2018-09-10T12:32:35.809Z,40.46
2018-09-10T12:35:04.011Z,40.12
2018-09-10T12:37:32.258Z,39.55
2018-09-10T12:40:00.445Z,40.57
2018-09-10T12:42:28.636Z,39.56
2018-09-10T12:44:56.855Z,40.34
2018-09-10T12:47:25.179Z,40.87
2018-09-10T12:49:53.404Z,40.44
2018-09-10T12:52:21.590Z,40.17
2018-09-10T12:54:49.783Z,40.77
2018-09-10T12:57:17.967Z,41.04
2018-09-10T12:59:46.180Z,40.64
2018-09-10T13:02:14.375Z,41.42
2018-09-10T13:04:42.557Z,41.90
2018-09-10T13:07:10.888Z,41.50
2018-09-10T13:09:39.104Z,41.46
2018-09-10T13:12:07.315Z,41.55
2018-09-10T13:14:35.512Z,41.65
2018-09-10T13:17:04.068Z,41.80
2018-09-10T13:19:32.274Z,42.33
2018-09-10T13:22:00.483Z,43.08
2018-09-10T13:24:28.662Z,42.94
2018-09-10T13:26:57.078Z,42.25
2018-09-10T13:29:25.321Z,41.53
2018-09-10T13:31:53.523Z,42.26
2018-09-10T13:34:21.715Z,41.97
2018-09-10T13:36:49.929Z,41.01
2018-09-10T13:39:18.169Z,41.49
2018-09-10T13:41:46.378Z,42.59
2018-09-10T13:44:14.600Z,42.42
2018-09-10T13:46:42.797Z,41.38
2018-09-10T13:49:11.005Z,41.64
2018-09-10T13:51:39.182Z,41.59
2018-09-10T13:54:07.423Z,41.17
2018-09-10T13:56:35.558Z,41.64
2018-09-10T13:59:03.760Z,41.71
2018-09-10T14:01:31.976Z,41.05
2018-09-10T14:04:00.195Z,41.23
2018-09-10T14:06:28.384Z,41.20
2018-09-10T14:08:56.574Z,41.09
2018-09-10T14:11:24.743Z,41.25
2018-09-10T14:13:52.948Z,41.34
2018-09-10T14:16:21.149Z,41.72
2018-09-10T14:18:49.336Z,42.17
2018-09-10T14:21:17.615Z,42.17
2018-09-10T14:23:45.823Z,42.77
2018-09-10T14:26:14.000Z,42.30
2018-09-10T14:28:42.199Z,42.80
2018-09-10T14:31:10.422Z,42.62
2018-09-10T14:33:38.615Z,42.91
2018-09-10T14:36:06.823Z,42.83
2018-09-10T14:38:35.047Z,42.48
2018-09-10T14:41:03.224Z,43.53
2018-09-10T14:43:31.400Z,42.72
2018-09-10T14:45:59.703Z,42.75
2018-09-10T14:48:27.908Z,43.31
2018-09-10T14:50:56.165Z,44.04
2018-09-10T14:53:24.355Z,43.40
2018-09-10T14:55:52.639Z,43.51
2018-09-10T14:58:20.838Z,43.53
2018-09-10T15:00:48.994Z,43.49
2018-09-10T15:03:17.200Z,42.86
2018-09-10T15:05:45.458Z,42.65
2018-09-10T15:08:13.592Z,42.64
2018-09-10T15:10:41.795Z,42.95
2018-09-10T15:13:09.975Z,43.04
2018-09-10T15:15:38.167Z,42.20
2018-09-10T15:18:06.934Z,42.85
2018-09-10T15:20:35.150Z,43.77
2018-09-10T15:23:03.339Z,43.69
2018-09-10T15:25:31.537Z,43.77
2018-09-10T15:27:59.719Z,43.99
2018-09-10T15:30:27.898Z,44.04
2018-09-10T15:32:56.099Z,43.40
2018-09-10T15:35:24.275Z,44.14
2018-09-10T15:37:52.459Z,43.76
2018-09-10T15:40:20.636Z,43.61
2018-09-10T15:42:48.847Z,43.48
2018-09-10T15:45:17.081Z,43.84
2018-09-10T15:47:45.219Z,44.01
2018-09-10T15:50:13.428Z,43.94
2018-09-10T15:52:41.606Z,44.51
2018-09-10T15:55:09.783Z,45.21
2018-09-10T15:57:38.006Z,44.63
2018-09-10T16:00:06.287Z,44.28
2018-09-10T16:02:34.466Z,44.36
2018-09-10T16:05:02.647Z,43.79
2018-09-10T16:07:30.833Z,44.96
2018-09-10T16:09:59.019Z,45.04
2018-09-10T16:12:27.216Z,45.38
2018-09-10T16:14:55.988Z,45.48
2018-09-10T16:17:24.205Z,45.81
2018-09-10T16:19:52.407Z,45.06
2018-09-10T16:22:20.636Z,45.53
2018-09-10T16:24:48.850Z,45.78
2018-09-10T16:27:17.088Z,45.78
2018-09-10T16:29:45.227Z,45.80
2018-09-10T16:32:13.412Z,46.29
2018-09-10T16:34:41.602Z,46.11
2018-09-10T16:37:09.803Z,45.92
2018-09-10T16:39:38.144Z,46.24
2018-09-10T16:42:06.337Z,46.87
2018-09-10T16:44:34.511Z,47.77
2018-09-10T16:47:02.726Z,46.84
2018-09-10T16:52:33.343Z,47.83
2018-09-10T16:55:01.647Z,47.00
2018-09-10T16:57:29.715Z,47.04
2018-09-10T16:59:57.925Z,47.48
2018-09-10T17:02:26.108Z,47.71
2018-09-10T17:04:58.695Z,47.77
2018-09-10T17:07:29.172Z,47.67
2018-09-10T17:09:57.338Z,49.12
2018-09-10T17:12:25.544Z,49.38
2018-09-10T17:14:53.777Z,49.47
2018-09-10T17:17:21.899Z,49.71
2018-09-10T17:19:50.079Z,49.76
2018-09-10T17:22:18.280Z,50.96
2018-09-10T17:24:46.465Z,50.84
2018-09-10T17:27:14.664Z,50.74
2018-09-10T17:29:42.834Z,51.05
2018-09-10T17:32:11.051Z,51.56
2018-09-10T17:34:39.231Z,51.41
2018-09-10T17:37:07.455Z,51.46
2018-09-10T17:39:35.630Z,51.60
2018-09-10T17:42:03.824Z,51.10
2018-09-10T17:44:32.016Z,51.30
2018-09-10T17:47:00.276Z,51.67
2018-09-10T17:49:28.366Z,51.84
2018-09-10T17:51:56.737Z,51.56
2018-09-10T17:54:24.945Z,51.92
2018-09-10T17:56:54.362Z,53.14
2018-09-10T17:59:22.671Z,52.92
2018-09-10T18:01:52.652Z,53.71
2018-09-10T18:04:20.895Z,53.95
2018-09-10T18:06:49.783Z,53.83
2018-09-10T18:09:18.878Z,53.93
2018-09-10T18:11:47.126Z,54.29
2018-09-10T18:14:15.397Z,54.51
2018-09-10T18:16:43.748Z,54.94
2018-09-10T18:19:11.951Z,55.16
2018-09-10T18:21:42.234Z,55.63
2018-09-10T18:24:10.448Z,55.31
2018-09-10T18:26:38.702Z,55.44
2018-09-10T18:29:06.884Z,56.25
2018-09-10T18:31:35.199Z,56.04
2018-09-10T18:34:03.563Z,56.33
2018-09-10T18:36:32.280Z,56.16
2018-09-10T18:39:01.113Z,56.32
2018-09-10T18:41:29.270Z,56.61
2018-09-10T18:43:58.707Z,56.35
2018-09-10T18:53:05.559Z,56.40
2018-09-10T18:55:33.973Z,55.72
2018-09-10T18:58:02.227Z,56.51
2018-09-10T19:00:30.480Z,57.06
2018-09-10T19:02:59.414Z,57.52
2018-09-10T19:05:27.686Z,57.65
2018-09-10T19:07:56.408Z,57.84
2018-09-10T19:10:25.643Z,57.86
2018-09-10T19:12:54.227Z,58.20
2018-09-10T19:15:22.492Z,57.99
2018-09-10T19:17:50.791Z,57.92
2018-09-10T19:20:19.223Z,58.67
2018-09-10T19:22:48.507Z,58.37
2018-09-10T19:25:16.715Z,58.14
2018-09-10T19:27:45.134Z,58.50
2018-09-10T19:30:13.461Z,59.05
2018-09-10T19:32:41.695Z,59.36
2018-09-10T19:35:09.988Z,60.25
2018-09-10T19:37:38.285Z,60.21
2018-09-10T19:40:06.459Z,60.63
2018-09-10T19:42:34.691Z,61.00
2018-09-10T19:45:03.939Z,61.24
2018-09-10T19:47:32.224Z,60.93
2018-09-10T19:50:00.436Z,61.58
2018-09-10T19:52:29.452Z,61.69
2018-09-10T19:54:59.109Z,61.92
2018-09-10T19:57:28.476Z,62.15
2018-09-10T19:59:57.564Z,61.86
2018-09-10T20:02:27.880Z,62.35
2018-09-10T20:04:57.454Z,62.13
2018-09-10T20:07:26.757Z,62.21
2018-09-10T20:09:55.237Z,61.97
2018-09-10T20:12:23.524Z,62.10
2018-09-10T20:14:51.807Z,62.17
2018-09-10T20:17:20.019Z,62.76
2018-09-10T20:19:48.235Z,62.66
2018-09-10T20:22:18.408Z,62.66
2018-09-10T20:24:46.662Z,62.39
2018-09-10T20:27:15.773Z,62.82
2018-09-10T20:29:45.830Z,62.81
2018-09-10T20:32:13.992Z,63.22
2018-09-10T20:34:42.163Z,63.25
2018-09-10T20:37:10.343Z,63.68
2018-09-10T20:39:38.576Z,63.40
2018-09-10T20:42:06.715Z,63.18
2018-09-10T20:44:34.878Z,63.63
2018-09-10T20:47:03.064Z,63.06
2018-09-10T20:49:31.432Z,63.76
2018-09-10T20:51:59.626Z,63.77
2018-09-10T20:54:27.807Z,63.28
2018-09-10T20:56:55.995Z,63.75
2018-09-10T20:59:24.195Z,63.93
2018-09-10T21:01:52.363Z,64.26
2018-09-10T21:04:20.547Z,63.96
2018-09-10T21:06:48.740Z,63.80
2018-09-10T21:09:16.919Z,64.33
2018-09-10T21:11:45.100Z,64.35
2018-09-10T21:14:13.272Z,64.20
2018-09-10T21:16:41.563Z,64.35
2018-09-10T21:19:09.732Z,64.64
2018-09-10T21:21:37.907Z,64.69
2018-09-10T21:24:06.159Z,64.55
2018-09-10T21:26:34.334Z,64.13
2018-09-10T21:29:02.816Z,64.24
2018-09-10T21:31:31.018Z,64.08
2018-09-10T21:33:59.180Z,64.59
2018-09-10T21:36:27.374Z,64.33
2018-09-10T21:38:55.576Z,65.02
2018-09-10T21:41:23.750Z,64.85
2018-09-10T21:43:51.928Z,65.31
2018-09-10T21:46:20.130Z,65.15
2018-09-10T21:48:48.328Z,65.20
2018-09-10T21:51:16.528Z,64.62
2018-09-10T21:53:44.780Z,64.55
2018-09-10T21:56:12.895Z,64.96
2018-09-10T21:58:41.095Z,64.90
2018-09-10T22:01:09.278Z,65.56
2018-09-10T22:03:37.467Z,65.59
2018-09-10T22:06:05.648Z,65.19
2018-09-10T22:08:33.828Z,65.52
2018-09-10T22:11:02.012Z,65.96
2018-09-10T22:13:30.204Z,65.88
2018-09-10T22:15:58.375Z,65.97
2018-09-10T22:18:26.555Z,65.86
2018-09-10T22:20:54.739Z,66.11
2018-09-10T22:23:22.927Z,65.89
2018-09-10T22:25:51.124Z,66.17
2018-09-10T22:28:19.307Z,66.86
2018-09-10T22:30:47.483Z,66.96
2018-09-10T22:33:15.741Z,66.74
2018-09-10T22:35:43.928Z,66.87
2018-09-10T22:38:12.107Z,66.95
2018-09-10T22:40:40.287Z,67.23
2018-09-10T22:43:08.470Z,66.08
2018-09-10T22:45:36.664Z,67.01
2018-09-10T22:48:05.087Z,66.60
2018-09-10T22:50:33.288Z,66.65
2018-09-10T22:53:01.495Z,66.23
2018-09-10T22:55:29.723Z,66.20
2018-09-10T22:57:57.930Z,65.53
2018-09-10T23:00:26.108Z,64.79
2018-09-10T23:02:54.299Z,64.38
2018-09-10T23:05:22.479Z,64.19
2018-09-10T23:07:50.646Z,63.64
2018-09-10T23:10:18.834Z,62.68
2018-09-10T23:12:47.025Z,62.25
2018-09-10T23:15:15.198Z,61.65
2018-09-10T23:17:43.391Z,62.16
2018-09-10T23:20:11.591Z,61.69
2018-09-10T23:22:39.800Z,61.07
2018-09-10T23:25:08.034Z,61.39
2018-09-10T23:27:36.226Z,60.33
2018-09-10T23:30:04.448Z,60.44
2018-09-10T23:32:32.648Z,60.61
2018-09-10T23:35:00.833Z,60.64
2018-09-10T23:37:29.003Z,60.24
2018-09-10T23:39:57.195Z,60.21
2018-09-10T23:42:25.379Z,60.18
2018-09-10T23:44:53.567Z,59.55
2018-09-10T23:47:21.739Z,59.21
2018-09-10T23:49:49.947Z,59.32
2018-09-10T23:52:18.123Z,59.78
2018-09-10T23:54:46.307Z,59.87
2018-09-10T23:57:14.490Z,60.68
2018-09-10T23:59:42.668Z,60.88
